createdAt,value
2024-04-02T00:00:11.085Z,2.01
2024-04-02T00:01:11.100Z,2.03
2024-04-02T00:02:11.125Z,2.01
2024-04-02T00:03:11.151Z,1.97
2024-04-02T00:04:11.168Z,1.99
2024-04-02T00:05:11.214Z,1.94
2024-04-02T00:06:11.208Z,1.97
2024-04-02T00:07:11.219Z,1.93
2024-04-02T00:08:11.278Z,1.95
2024-04-02T00:09:11.265Z,1.94
2024-04-02T00:10:11.291Z,1.98
2024-04-02T00:11:11.325Z,1.95
2024-04-02T00:12:11.339Z,1.96
2024-04-02T00:13:11.360Z,2.00
2024-04-02T00:14:11.459Z,2.02
2024-04-02T00:15:11.407Z,2.01
2024-04-02T00:16:11.435Z,2.10
2024-04-02T00:17:11.503Z,2.01
2024-04-02T00:18:11.502Z,2.04
2024-04-02T00:19:11.533Z,2.12
2024-04-02T00:20:11.600Z,2.08
2024-04-02T00:21:11.622Z,2.02
2024-04-02T00:22:11.624Z,2.08
2024-04-02T00:23:11.657Z,2.07
2024-04-02T00:24:11.692Z,2.11
2024-04-02T00:25:11.734Z,2.12
2024-04-02T00:26:11.771Z,2.10
2024-04-02T00:27:11.784Z,2.12
2024-04-02T00:28:11.822Z,2.09
2024-04-02T00:29:11.882Z,2.09
2024-04-02T00:30:11.889Z,2.17
2024-04-02T00:31:13.303Z,2.16
2024-04-02T00:32:11.940Z,2.17
2024-04-02T00:33:11.977Z,2.13
2024-04-02T00:34:12.009Z,2.17
2024-04-02T00:35:12.059Z,2.16
2024-04-02T00:36:12.074Z,2.12
2024-04-02T00:37:12.086Z,2.13
2024-04-02T00:38:12.120Z,2.13
2024-04-02T00:39:12.152Z,2.13
2024-04-02T00:40:12.173Z,2.11
2024-04-02T00:41:12.217Z,2.20
2024-04-02T00:42:12.238Z,2.18
2024-04-02T00:43:12.257Z,2.15
2024-04-02T00:44:12.300Z,2.20
2024-04-02T00:45:12.306Z,2.10
2024-04-02T00:46:12.336Z,2.15
2024-04-02T00:47:12.353Z,2.08
2024-04-02T00:48:12.379Z,2.17
2024-04-02T00:49:12.398Z,2.14
2024-04-02T00:50:12.439Z,2.13
2024-04-02T00:51:12.452Z,2.12
2024-04-02T00:52:12.471Z,2.14
2024-04-02T00:53:12.499Z,2.15
2024-04-02T00:54:12.535Z,2.12
2024-04-02T00:55:12.616Z,2.11
2024-04-02T00:56:12.616Z,2.10
2024-04-02T00:57:12.622Z,2.10
2024-04-02T00:58:12.635Z,2.11
2024-04-02T00:59:12.657Z,2.08
2024-04-02T01:00:12.690Z,2.09
2024-04-02T01:01:12.722Z,2.08
2024-04-02T01:02:12.736Z,2.13
2024-04-02T01:03:12.774Z,2.10
2024-04-02T01:04:12.828Z,2.11
2024-04-02T01:05:12.842Z,2.08
2024-04-02T01:06:12.837Z,2.08
2024-04-02T01:07:12.850Z,2.08
2024-04-02T01:08:12.904Z,2.08
2024-04-02T01:09:12.898Z,2.08
2024-04-02T01:10:12.928Z,2.06
2024-04-02T01:11:12.973Z,2.09
2024-04-02T01:12:12.968Z,2.07
2024-04-02T01:13:13.008Z,2.03
2024-04-02T01:14:13.021Z,2.14
2024-04-02T01:15:13.048Z,2.07
2024-04-02T01:16:13.068Z,2.06
2024-04-02T01:17:13.103Z,2.09
2024-04-02T01:18:13.119Z,2.05
2024-04-02T01:19:13.144Z,2.09
2024-04-02T01:20:13.185Z,2.08
2024-04-02T01:21:13.194Z,2.11
2024-04-02T01:22:13.213Z,2.06
2024-04-02T01:23:13.253Z,2.05
2024-04-02T01:24:13.259Z,2.05
2024-04-02T01:25:13.286Z,2.01
2024-04-02T01:26:13.316Z,2.04
2024-04-02T01:27:13.328Z,2.00
2024-04-02T01:28:13.352Z,2.07
2024-04-02T01:29:13.382Z,2.04
2024-04-02T01:30:13.396Z,2.05
2024-04-02T01:31:13.424Z,2.04
2024-04-02T01:32:13.464Z,2.08
2024-04-02T01:33:13.468Z,2.05
2024-04-02T01:34:13.498Z,2.04
2024-04-02T01:35:13.529Z,2.06
2024-04-02T01:36:13.540Z,2.07
2024-04-02T01:37:13.572Z,2.08
2024-04-02T01:38:13.619Z,2.06
2024-04-02T01:39:13.617Z,2.06
2024-04-02T01:40:13.648Z,2.08
2024-04-02T01:41:13.709Z,2.06
2024-04-02T01:42:13.708Z,2.05
2024-04-02T01:43:13.735Z,2.08
2024-04-02T01:44:13.772Z,2.10
2024-04-02T01:45:13.801Z,2.07
2024-04-02T01:46:13.825Z,2.07
2024-04-02T01:47:13.883Z,2.13
2024-04-02T01:48:13.882Z,2.08
2024-04-02T01:49:13.916Z,2.10
2024-04-02T01:50:13.972Z,2.11
2024-04-02T01:51:13.966Z,2.07
2024-04-02T01:52:15.630Z,2.14
2024-04-02T01:53:14.007Z,2.16
2024-04-02T01:54:14.010Z,2.15
2024-04-02T01:55:14.010Z,2.16
2024-04-02T01:56:14.055Z,2.13
2024-04-02T01:57:14.015Z,2.16
2024-04-02T01:58:14.010Z,2.09
2024-04-02T01:59:14.025Z,2.10
2024-04-02T02:00:14.054Z,2.14
2024-04-02T02:01:14.022Z,2.15
2024-04-02T02:02:14.068Z,2.11
2024-04-02T02:03:14.023Z,2.15
2024-04-02T02:04:14.029Z,2.12
2024-04-02T02:05:14.106Z,2.12
2024-04-02T02:06:14.019Z,2.12
2024-04-02T02:07:14.021Z,2.18
2024-04-02T02:08:14.037Z,2.17
2024-04-02T02:09:14.066Z,2.15
2024-04-02T02:10:14.053Z,2.15
2024-04-02T02:11:14.061Z,2.12
2024-04-02T02:12:14.033Z,2.16
2024-04-02T02:13:14.038Z,2.11
2024-04-02T02:14:14.099Z,2.10
2024-04-02T02:15:14.073Z,2.11
2024-04-02T02:16:14.047Z,2.14
2024-04-02T02:17:14.106Z,2.12
2024-04-02T02:18:14.054Z,2.18
2024-04-02T02:19:14.048Z,2.15
2024-04-02T02:20:14.106Z,2.12
2024-04-02T02:21:14.049Z,2.08
2024-04-02T02:22:14.055Z,2.09
2024-04-02T02:23:14.100Z,2.12
2024-04-02T02:24:14.055Z,2.09
2024-04-02T02:25:14.087Z,2.14
2024-04-02T02:26:14.086Z,2.10
2024-04-02T02:27:14.056Z,2.13
2024-04-02T02:28:14.049Z,2.09
2024-04-02T02:29:14.101Z,2.12
2024-04-02T02:30:14.072Z,2.16
2024-04-02T02:31:14.098Z,2.10
2024-04-02T02:32:14.183Z,2.12
2024-04-02T02:33:14.072Z,2.16
2024-04-02T02:34:14.072Z,2.11
2024-04-02T02:35:14.142Z,2.09
2024-04-02T02:36:14.064Z,2.14
2024-04-02T02:37:14.061Z,2.13
2024-04-02T02:38:14.101Z,2.08
2024-04-02T02:39:14.069Z,2.11
2024-04-02T02:40:14.081Z,2.12
2024-04-02T02:41:14.148Z,2.09
2024-04-02T02:42:14.080Z,2.14
2024-04-02T02:43:14.076Z,2.10
2024-04-02T02:44:14.149Z,2.10
2024-04-02T02:45:16.275Z,2.07
2024-04-02T02:46:14.071Z,2.07
2024-04-02T02:47:14.117Z,2.08
2024-04-02T02:48:14.076Z,2.09
2024-04-02T02:49:14.074Z,2.08
2024-04-02T02:50:14.139Z,2.07
2024-04-02T02:51:14.085Z,2.11
2024-04-02T02:52:14.072Z,2.07
2024-04-02T02:53:15.681Z,2.06
2024-04-02T02:54:14.073Z,2.10
2024-04-02T02:55:14.087Z,2.07
2024-04-02T02:56:14.114Z,2.06
2024-04-02T02:57:14.070Z,2.06
2024-04-02T02:58:14.078Z,2.10
2024-04-02T02:59:14.089Z,2.05
2024-04-02T03:00:14.084Z,2.04
2024-04-02T03:01:14.092Z,2.09
2024-04-02T03:02:14.149Z,2.06
2024-04-02T03:03:14.085Z,2.11
2024-04-02T03:04:14.081Z,2.06
2024-04-02T03:05:14.148Z,2.03
2024-04-02T03:06:14.088Z,2.09
2024-04-02T03:07:14.082Z,2.05
2024-04-02T03:08:14.120Z,2.06
2024-04-02T03:09:14.083Z,2.09
2024-04-02T03:10:14.085Z,2.07
2024-04-02T03:11:14.133Z,2.11
2024-04-02T03:12:14.091Z,2.04
2024-04-02T03:13:14.102Z,2.07
2024-04-02T03:14:14.134Z,2.03
2024-04-02T03:15:14.120Z,2.04
2024-04-02T03:16:14.095Z,2.03
2024-04-02T03:17:14.132Z,2.06
2024-04-02T03:18:14.100Z,2.08
2024-04-02T03:19:14.087Z,2.08
2024-04-02T03:20:14.168Z,2.04
2024-04-02T03:21:14.098Z,2.06
2024-04-02T03:22:14.109Z,2.04
2024-04-02T03:23:14.161Z,2.03
2024-04-02T03:24:14.109Z,2.04
2024-04-02T03:25:14.113Z,2.02
2024-04-02T03:26:14.119Z,2.02
2024-04-02T03:27:14.109Z,2.00
2024-04-02T03:28:14.109Z,1.95
2024-04-02T03:29:14.110Z,2.00
2024-04-02T03:30:14.838Z,1.95
2024-04-02T03:31:14.109Z,1.96
2024-04-02T03:32:14.145Z,1.94
2024-04-02T03:33:14.115Z,1.94
2024-04-02T03:34:14.119Z,1.93
2024-04-02T03:35:14.159Z,1.95
2024-04-02T03:36:14.119Z,1.91
2024-04-02T03:37:14.119Z,1.92
2024-04-02T03:38:14.133Z,1.92
2024-04-02T03:39:14.125Z,1.88
2024-04-02T03:40:14.134Z,1.91
2024-04-02T03:41:14.143Z,1.94
2024-04-02T03:42:14.131Z,1.94
2024-04-02T03:43:14.125Z,1.96
2024-04-02T03:44:14.129Z,1.94
2024-04-02T03:45:14.140Z,1.97
2024-04-02T03:46:14.140Z,1.96
2024-04-02T03:47:14.165Z,1.96
2024-04-02T03:48:14.133Z,1.92
2024-04-02T03:49:14.131Z,1.95
2024-04-02T03:50:14.138Z,1.92
2024-04-02T03:51:14.141Z,1.99
2024-04-02T03:52:14.139Z,1.99
2024-04-02T03:53:14.158Z,1.95
2024-04-02T03:54:14.150Z,2.00
2024-04-02T03:55:14.995Z,1.97
2024-04-02T03:56:14.196Z,2.00
2024-04-02T03:57:14.156Z,1.98
2024-04-02T03:58:14.162Z,1.97
2024-04-02T03:59:14.165Z,2.06
2024-04-02T04:00:14.166Z,2.02
2024-04-02T04:01:14.157Z,2.07
2024-04-02T04:02:14.185Z,2.08
2024-04-02T04:03:14.152Z,2.11
2024-04-02T04:04:14.156Z,2.07
2024-04-02T04:05:14.192Z,2.12
2024-04-02T04:06:14.177Z,2.10
2024-04-02T04:07:14.166Z,2.12
2024-04-02T04:08:14.171Z,2.10
2024-04-02T04:09:14.167Z,2.12
2024-04-02T04:10:14.179Z,2.13
2024-04-02T04:11:14.180Z,2.16
2024-04-02T04:12:14.168Z,2.13
2024-04-02T04:13:14.176Z,2.14
2024-04-02T04:14:14.193Z,2.16
2024-04-02T04:15:14.180Z,2.20
2024-04-02T04:16:14.177Z,2.21
2024-04-02T04:17:14.191Z,2.18
2024-04-02T04:18:14.210Z,2.15
2024-04-02T04:19:14.197Z,2.17
2024-04-02T04:20:14.238Z,2.17
2024-04-02T04:21:14.277Z,2.19
2024-04-02T04:22:14.297Z,2.18
2024-04-02T04:23:14.330Z,2.19
2024-04-02T04:24:14.365Z,2.19
2024-04-02T04:25:14.431Z,2.16
2024-04-02T04:26:21.599Z,0.50
2024-04-02T04:27:21.602Z,0.50
2024-04-02T04:28:21.609Z,0.50
2024-04-02T04:29:21.600Z,0.50
2024-04-02T04:30:21.622Z,0.50
2024-04-02T04:31:28.825Z,0.50
2024-04-02T04:32:28.857Z,0.50
2024-04-02T04:33:28.819Z,0.50
2024-04-02T04:34:28.832Z,0.50
2024-04-02T04:35:28.828Z,0.50
2024-04-02T04:36:28.827Z,0.51
2024-04-02T04:37:28.830Z,0.50
2024-04-02T04:38:28.827Z,0.51
2024-04-02T04:39:28.839Z,0.51
2024-04-02T04:40:28.833Z,0.50
2024-04-02T04:41:28.839Z,0.52
2024-04-02T04:42:28.838Z,0.52
2024-04-02T04:43:28.845Z,0.52
2024-04-02T04:44:28.835Z,0.51
2024-04-02T04:45:28.854Z,0.51
2024-04-02T04:46:28.842Z,0.52
2024-04-02T04:47:28.876Z,0.51
2024-04-02T04:48:28.841Z,0.51
2024-04-02T04:49:28.850Z,0.51
2024-04-02T04:50:28.871Z,0.51
2024-04-02T04:51:28.853Z,0.51
2024-04-02T04:52:28.866Z,0.51
2024-04-02T04:53:28.848Z,0.52
2024-04-02T04:54:28.855Z,0.50
2024-04-02T04:55:28.885Z,0.52
2024-04-02T04:56:28.854Z,0.51
2024-04-02T04:57:28.861Z,0.52
2024-04-02T04:58:28.856Z,0.51
2024-04-02T04:59:28.865Z,0.52
2024-04-02T05:00:28.885Z,0.53
2024-04-02T05:01:28.861Z,0.52
2024-04-02T05:02:28.865Z,0.53
2024-04-02T05:03:30.539Z,0.53
2024-04-02T05:04:28.871Z,0.52
2024-04-02T05:05:28.901Z,0.55
2024-04-02T05:06:28.893Z,0.55
2024-04-02T05:07:28.878Z,0.54
2024-04-02T05:08:28.878Z,0.54
2024-04-02T05:09:28.888Z,0.54
2024-04-02T05:10:28.904Z,0.53
2024-04-02T05:11:28.879Z,0.54
2024-04-02T05:12:28.900Z,0.55
2024-04-02T05:13:28.884Z,0.55
2024-04-02T05:14:28.879Z,0.56
2024-04-02T05:15:28.913Z,0.56
2024-04-02T05:16:28.879Z,0.55
2024-04-02T05:17:28.906Z,0.56
2024-04-02T05:18:28.894Z,0.57
2024-04-02T05:19:28.891Z,0.56
2024-04-02T05:20:28.898Z,0.57
2024-04-02T05:21:28.952Z,0.58
2024-04-02T05:22:28.909Z,0.57
2024-04-02T05:23:28.905Z,0.59
2024-04-02T05:24:28.903Z,0.57
2024-04-02T05:25:28.902Z,0.58
2024-04-02T05:26:28.952Z,0.57
2024-04-02T05:27:28.912Z,0.57
2024-04-02T05:28:28.959Z,0.58
2024-04-02T05:29:28.913Z,0.59
2024-04-02T05:30:28.910Z,0.61
2024-04-02T05:31:28.984Z,0.60
2024-04-02T05:32:28.910Z,0.67
2024-04-02T05:33:28.977Z,0.71
2024-04-02T05:34:28.939Z,0.73
2024-04-02T05:35:28.983Z,0.76
2024-04-02T05:36:29.002Z,0.79
2024-04-02T05:37:29.013Z,0.84
2024-04-02T05:38:29.488Z,0.89
2024-04-02T05:39:29.030Z,0.92
2024-04-02T05:40:29.046Z,0.96
2024-04-02T05:41:29.468Z,1.00
2024-04-02T05:42:29.077Z,1.05
2024-04-02T05:43:29.481Z,1.12
2024-04-02T05:44:29.197Z,1.20
2024-04-02T05:45:29.270Z,1.25
2024-04-02T05:46:29.472Z,1.33
2024-04-02T05:47:29.393Z,1.39
2024-04-02T05:48:29.479Z,1.48
2024-04-02T05:49:29.513Z,1.53
2024-04-02T05:50:29.644Z,1.60
2024-04-02T05:51:29.973Z,1.71
2024-04-02T05:52:29.689Z,1.78
2024-04-02T05:53:29.738Z,1.85
2024-04-02T05:54:29.774Z,1.92
2024-04-02T05:55:29.832Z,2.03
2024-04-02T05:56:29.877Z,2.13
2024-04-02T05:57:29.984Z,2.24
2024-04-02T05:58:29.999Z,2.39
2024-04-02T05:59:30.462Z,2.50
2024-04-02T06:00:30.117Z,2.61
2024-04-02T06:01:30.166Z,2.77
2024-04-02T06:02:30.216Z,2.99
2024-04-02T06:03:30.266Z,3.21
2024-04-02T06:04:30.471Z,3.26
2024-04-02T06:05:30.338Z,3.54
2024-04-02T06:06:30.388Z,3.50
2024-04-02T06:07:30.416Z,3.61
2024-04-02T06:08:30.470Z,3.49
2024-04-02T06:09:30.503Z,3.77
2024-04-02T06:10:30.574Z,3.68
2024-04-02T06:11:30.590Z,3.94
2024-04-02T06:12:30.611Z,4.10
2024-04-02T06:13:30.643Z,4.02
2024-04-02T06:14:30.687Z,4.22
2024-04-02T06:15:30.704Z,4.14
2024-04-02T06:16:30.734Z,4.20
2024-04-02T06:17:30.756Z,4.30
2024-04-02T06:18:30.775Z,4.26
2024-04-02T06:19:30.790Z,4.37
2024-04-02T06:20:30.807Z,4.41
2024-04-02T06:21:30.823Z,4.41
2024-04-02T06:22:30.835Z,4.37
2024-04-02T06:23:30.843Z,4.42
2024-04-02T06:24:30.877Z,4.44
2024-04-02T06:25:30.876Z,4.54
2024-04-02T06:26:30.885Z,4.59
2024-04-02T06:27:30.871Z,4.49
2024-04-02T06:28:30.890Z,4.62
2024-04-02T06:29:30.929Z,4.65
2024-04-02T06:30:30.914Z,4.88
2024-04-02T06:31:30.979Z,4.86
2024-04-02T06:32:30.915Z,5.03
2024-04-02T06:33:30.932Z,4.90
2024-04-02T06:34:30.943Z,4.82
2024-04-02T06:35:30.957Z,4.61
2024-04-02T06:36:31.485Z,4.43
2024-04-02T06:37:30.997Z,4.00
2024-04-02T06:38:31.011Z,3.95
2024-04-02T06:39:31.022Z,3.85
2024-04-02T06:40:31.088Z,3.39
2024-04-02T06:41:31.068Z,3.23
2024-04-02T06:42:31.091Z,2.89
2024-04-02T06:43:31.123Z,2.68
2024-04-02T06:44:31.144Z,2.61
2024-04-02T06:45:31.184Z,2.32
2024-04-02T06:46:31.490Z,2.25
2024-04-02T06:47:31.282Z,2.08
2024-04-02T06:48:31.317Z,2.01
2024-04-02T06:49:31.371Z,2.03
2024-04-02T06:50:31.421Z,1.95
2024-04-02T06:51:31.487Z,1.87
2024-04-02T06:52:31.535Z,1.88
2024-04-02T06:53:31.588Z,1.82
2024-04-02T06:54:31.643Z,1.77
2024-04-02T06:55:31.703Z,1.73
2024-04-02T06:56:31.764Z,1.71
2024-04-02T06:57:31.822Z,1.72
2024-04-02T06:58:31.896Z,1.72
2024-04-02T06:59:31.959Z,1.68
2024-04-02T07:00:32.029Z,1.66
2024-04-02T07:01:32.081Z,1.72
2024-04-02T07:02:32.143Z,1.73
2024-04-02T07:03:32.217Z,1.75
2024-04-02T07:04:32.277Z,1.72
2024-04-02T07:05:32.369Z,1.71
2024-04-02T07:06:32.453Z,1.69
2024-04-02T07:07:32.503Z,1.68
2024-04-02T07:08:32.568Z,1.67
2024-04-02T07:09:32.640Z,1.66
2024-04-02T07:10:32.712Z,1.65
2024-04-02T07:11:32.795Z,1.67
2024-04-02T07:12:32.833Z,1.70
2024-04-02T07:13:32.896Z,1.72
2024-04-02T07:14:32.968Z,1.76
2024-04-02T07:15:33.028Z,1.76
2024-04-02T07:16:33.135Z,1.79
2024-04-02T07:17:33.150Z,1.74
2024-04-02T07:18:33.209Z,1.72
2024-04-02T07:19:33.260Z,1.63
2024-04-02T07:20:33.312Z,1.63
2024-04-02T07:21:33.368Z,1.60
2024-04-02T07:22:33.428Z,1.62
2024-04-02T07:23:33.477Z,1.61
2024-04-02T07:24:33.531Z,1.56
2024-04-02T07:25:33.602Z,1.52
2024-04-02T07:26:34.033Z,1.50
2024-04-02T07:27:33.716Z,1.68
2024-04-02T07:28:33.782Z,1.70
2024-04-02T07:29:33.853Z,1.71
2024-04-02T07:30:34.508Z,1.68
2024-04-02T07:31:34.002Z,1.63
2024-04-02T07:32:34.023Z,1.61
2024-04-02T07:33:34.010Z,1.58
2024-04-02T07:34:34.050Z,1.53
2024-04-02T07:35:34.106Z,1.46
2024-04-02T07:36:34.511Z,1.44
2024-04-02T07:37:34.251Z,1.46
2024-04-02T07:38:34.307Z,1.45
2024-04-02T07:39:34.402Z,1.46
2024-04-02T07:40:34.444Z,1.45
2024-04-02T07:41:35.025Z,1.50
2024-04-02T07:42:34.579Z,1.52
2024-04-02T07:43:34.648Z,1.51
2024-04-02T07:44:34.721Z,1.51
2024-04-02T07:45:34.776Z,1.52
2024-04-02T07:46:34.843Z,1.54
2024-04-02T07:47:34.902Z,1.56
2024-04-02T07:48:34.963Z,1.61
2024-04-02T07:49:35.024Z,1.62
2024-04-02T07:50:35.087Z,1.63
2024-04-02T07:51:35.149Z,1.60
2024-04-02T07:52:35.199Z,1.62
2024-04-02T07:53:35.298Z,1.62
2024-04-02T07:54:35.610Z,1.63
2024-04-02T07:55:35.348Z,1.67
2024-04-02T07:56:35.422Z,1.73
2024-04-02T07:57:35.469Z,1.72
2024-04-02T07:58:35.500Z,1.81
2024-04-02T07:59:35.519Z,1.93
2024-04-02T08:00:35.575Z,2.07
2024-04-02T08:01:35.637Z,2.11
2024-04-02T08:02:35.616Z,2.21
2024-04-02T08:03:35.666Z,2.31
2024-04-02T08:04:35.678Z,2.37
2024-04-02T08:05:35.700Z,2.46
2024-04-02T08:06:35.742Z,2.44
2024-04-02T08:07:35.747Z,2.45
2024-04-02T08:08:35.771Z,2.45
2024-04-02T08:09:35.782Z,2.60
2024-04-02T08:10:35.788Z,2.51
2024-04-02T08:11:35.800Z,2.62
2024-04-02T08:12:35.801Z,2.69
2024-04-02T08:13:35.815Z,2.72
2024-04-02T08:14:35.818Z,2.82
2024-04-02T08:15:35.828Z,2.99
2024-04-02T08:16:36.034Z,2.99
2024-04-02T08:17:35.842Z,3.06
2024-04-02T08:18:35.841Z,3.10
2024-04-02T08:19:35.845Z,3.19
2024-04-02T08:20:35.867Z,3.28
2024-04-02T08:21:36.049Z,3.17
2024-04-02T08:22:35.887Z,3.11
2024-04-02T08:23:35.927Z,3.02
2024-04-02T08:24:35.911Z,2.89
2024-04-02T08:25:35.930Z,2.87
2024-04-02T08:26:36.003Z,2.73
2024-04-02T08:27:35.971Z,2.64
2024-04-02T08:28:35.959Z,2.57
2024-04-02T08:29:36.403Z,2.49
2024-04-02T08:30:35.975Z,2.38
2024-04-02T08:31:35.990Z,2.37
2024-04-02T08:32:35.988Z,2.30
2024-04-02T08:33:36.001Z,2.21
2024-04-02T08:34:36.013Z,2.13
2024-04-02T08:35:36.055Z,2.03
2024-04-02T08:36:36.554Z,1.90
2024-04-02T08:37:58.591Z,1.76
2024-04-02T08:38:36.128Z,1.77
2024-04-02T08:39:36.133Z,1.77
2024-04-02T08:40:36.139Z,1.70
2024-04-02T08:41:36.576Z,1.66
2024-04-02T08:42:42.210Z,1.43
2024-04-02T08:43:37.132Z,1.33
2024-04-02T08:44:36.168Z,1.24
2024-04-02T08:45:36.159Z,1.06
2024-04-02T08:46:36.569Z,1.01
2024-04-02T08:47:36.133Z,0.95
2024-04-02T08:48:36.663Z,0.84
2024-04-02T08:50:01.110Z,0.86
2024-04-02T08:50:36.241Z,0.86
2024-04-02T08:51:36.601Z,0.86
2024-04-02T08:52:36.150Z,0.81
2024-04-02T08:53:36.154Z,0.78
2024-04-02T08:54:36.150Z,0.76
2024-04-02T08:55:36.150Z,0.75
2024-04-02T08:56:36.604Z,0.74
2024-04-02T08:57:36.791Z,0.75
2024-04-02T08:58:36.160Z,0.74
2024-04-02T08:59:36.161Z,0.75
2024-04-02T09:00:36.169Z,0.74
2024-04-02T09:01:36.578Z,0.76
2024-04-02T09:02:36.163Z,0.78
2024-04-02T09:03:36.166Z,0.80
2024-04-02T09:04:36.165Z,0.84
2024-04-02T09:05:36.175Z,0.90
2024-04-02T09:06:36.595Z,0.87
2024-04-02T09:07:36.182Z,0.95
2024-04-02T09:08:36.177Z,0.98
2024-04-02T09:09:36.176Z,1.03
2024-04-02T09:10:36.187Z,1.09
2024-04-02T09:11:36.197Z,1.12
2024-04-02T09:12:36.194Z,1.16
2024-04-02T09:13:36.195Z,1.26
2024-04-02T09:14:36.191Z,1.31
2024-04-02T09:15:36.196Z,1.40
2024-04-02T09:16:36.200Z,1.48
2024-04-02T09:17:36.197Z,1.55
2024-04-02T09:18:36.200Z,1.61
2024-04-02T09:19:36.206Z,1.69
2024-04-02T09:20:36.201Z,1.68
2024-04-02T09:21:36.603Z,1.70
2024-04-02T09:22:36.241Z,1.58
2024-04-02T09:23:36.205Z,1.63
2024-04-02T09:24:36.203Z,1.55
2024-04-02T09:25:36.208Z,1.48
2024-04-02T09:26:36.586Z,1.47
2024-04-02T09:27:36.243Z,1.48
2024-04-02T09:28:36.220Z,1.47
2024-04-02T09:29:36.212Z,1.44
2024-04-02T09:30:36.222Z,1.49
2024-04-02T09:31:36.596Z,1.50
2024-04-02T09:32:36.245Z,1.52
2024-04-02T09:33:36.245Z,1.54
2024-04-02T09:34:36.222Z,1.58
2024-04-02T09:35:36.236Z,1.55
2024-04-02T09:36:36.218Z,1.58
2024-04-02T09:37:36.231Z,1.64
2024-04-02T09:38:36.220Z,1.77
2024-04-02T09:39:36.226Z,1.76
2024-04-02T09:40:36.232Z,1.82
2024-04-02T09:41:38.050Z,1.85
2024-04-02T09:42:36.286Z,1.88
2024-04-02T09:43:36.247Z,1.85
2024-04-02T09:44:36.242Z,1.85
2024-04-02T09:45:36.230Z,1.89
2024-04-02T09:46:36.620Z,1.88
2024-04-02T09:47:36.292Z,1.98
2024-04-02T09:48:36.250Z,2.02
2024-04-02T09:49:36.261Z,2.03
2024-04-02T09:50:36.257Z,2.04
2024-04-02T09:51:36.626Z,2.11
2024-04-02T09:52:36.267Z,2.06
2024-04-02T09:53:36.438Z,2.07
2024-04-02T09:54:36.279Z,2.07
2024-04-02T09:55:36.255Z,2.08
2024-04-02T09:56:36.304Z,2.04
2024-04-02T09:57:36.265Z,2.02
2024-04-02T09:58:36.259Z,2.01
2024-04-02T09:59:36.270Z,1.96
2024-04-02T10:00:36.339Z,1.98
2024-04-02T10:01:36.318Z,1.99
2024-04-02T10:02:36.287Z,1.94
2024-04-02T10:03:36.274Z,1.96
2024-04-02T10:04:36.269Z,2.00
2024-04-02T10:05:36.273Z,2.02
2024-04-02T10:06:38.648Z,2.13
2024-04-02T10:07:36.276Z,2.14
2024-04-02T10:08:36.282Z,2.15
2024-04-02T10:09:36.281Z,2.18
2024-04-02T10:10:36.287Z,2.20
2024-04-02T10:11:36.310Z,2.27
2024-04-02T10:12:36.288Z,2.20
2024-04-02T10:13:36.291Z,2.16
2024-04-02T10:14:36.319Z,2.16
2024-04-02T10:15:36.301Z,2.14
2024-04-02T10:16:36.671Z,2.08
2024-04-02T10:17:36.294Z,2.01
2024-04-02T10:18:36.291Z,1.84
2024-04-02T10:19:36.299Z,1.81
2024-04-02T10:20:36.300Z,1.64
2024-04-02T10:21:36.611Z,1.56
2024-04-02T10:22:36.653Z,1.50
2024-04-02T10:23:36.309Z,1.46
2024-04-02T10:24:36.307Z,1.36
2024-04-02T10:25:36.380Z,1.37
2024-04-02T10:26:36.297Z,1.34
2024-04-02T10:27:36.629Z,1.30
2024-04-02T10:28:36.301Z,1.19
2024-04-02T10:29:36.304Z,1.09
2024-04-02T10:30:36.301Z,1.00
2024-04-02T10:31:36.304Z,0.97
2024-04-02T10:32:36.353Z,0.95
2024-04-02T10:33:36.306Z,0.93
2024-04-02T10:34:36.348Z,0.92
2024-04-02T10:35:36.309Z,0.84
2024-04-02T10:36:36.634Z,0.76
2024-04-02T10:37:36.314Z,0.71
2024-04-02T10:38:36.358Z,0.70
2024-04-02T10:39:36.316Z,0.70
2024-04-02T10:40:36.321Z,0.67
2024-04-02T10:41:36.327Z,0.62
2024-04-02T10:42:36.343Z,0.60
2024-04-02T10:43:36.329Z,0.63
2024-04-02T10:44:36.330Z,0.61
2024-04-02T10:45:36.334Z,0.57
2024-04-02T10:46:36.357Z,0.56
2024-04-02T10:47:36.376Z,0.56
2024-04-02T10:48:38.651Z,0.53
2024-04-02T10:49:36.341Z,0.53
2024-04-02T10:50:36.345Z,0.55
2024-04-02T10:51:36.626Z,0.55
2024-04-02T10:52:36.362Z,0.51
2024-04-02T10:53:36.387Z,0.52
2024-04-02T10:54:38.678Z,0.51
2024-04-02T10:55:36.408Z,0.50
2024-04-02T10:56:36.755Z,0.52
2024-04-02T10:57:36.418Z,0.49
2024-04-02T10:58:36.413Z,0.50
2024-04-02T10:59:36.432Z,0.48
2024-04-02T11:00:38.697Z,0.50
2024-04-02T11:01:36.418Z,0.49
2024-04-02T11:02:36.462Z,0.45
2024-04-02T11:03:36.426Z,0.49
2024-04-02T11:04:36.427Z,0.48
2024-04-02T11:05:36.438Z,0.54
2024-04-02T11:06:38.070Z,0.60
2024-04-02T11:07:36.428Z,0.67
2024-04-02T11:08:36.493Z,0.75
2024-04-02T11:09:36.483Z,0.78
2024-04-02T11:10:36.523Z,0.85
2024-04-02T11:11:36.657Z,0.89
2024-04-02T11:12:36.581Z,0.98
2024-04-02T11:13:36.626Z,1.04
2024-04-02T11:14:36.618Z,1.20
2024-04-02T11:15:36.647Z,1.25
2024-04-02T11:16:37.134Z,1.31
2024-04-02T11:17:36.732Z,1.47
2024-04-02T11:18:36.729Z,1.54
2024-04-02T11:19:37.630Z,1.45
2024-04-02T11:20:36.871Z,1.53
2024-04-02T11:21:36.791Z,1.55
2024-04-02T11:22:36.800Z,1.51
2024-04-02T11:23:36.816Z,1.70
2024-04-02T11:24:36.835Z,1.76
2024-04-02T11:25:36.850Z,1.75
2024-04-02T11:26:36.882Z,1.76
2024-04-02T11:27:36.911Z,1.79
2024-04-02T11:28:36.933Z,1.84
2024-04-02T11:29:36.946Z,1.91
2024-04-02T11:30:36.967Z,1.83
2024-04-02T11:31:36.995Z,1.77
2024-04-02T11:32:37.046Z,1.74
2024-04-02T11:33:37.034Z,1.78
2024-04-02T11:34:37.058Z,1.64
2024-04-02T11:35:37.078Z,1.63
2024-04-02T11:36:37.111Z,1.55
2024-04-02T11:37:37.149Z,1.45
2024-04-02T11:38:37.170Z,1.41
2024-04-02T11:39:53.513Z,1.42
2024-04-02T11:40:38.226Z,1.37
2024-04-02T11:41:37.207Z,1.32
2024-04-02T11:42:37.220Z,1.19
2024-04-02T11:43:37.216Z,1.10
2024-04-02T11:44:37.214Z,1.12
2024-04-02T11:45:37.207Z,1.04
2024-04-02T11:46:37.273Z,1.02
2024-04-02T11:47:37.210Z,0.93
2024-04-02T11:48:37.215Z,0.87
2024-04-02T11:49:37.233Z,0.85
2024-04-02T11:50:37.233Z,0.82
2024-04-02T11:51:37.249Z,0.78
2024-04-02T11:52:37.248Z,0.76
2024-04-02T11:53:37.236Z,0.73
2024-04-02T11:54:37.244Z,0.70
2024-04-02T11:55:37.237Z,0.71
2024-04-02T11:56:37.250Z,0.67
2024-04-02T11:57:37.235Z,0.64
2024-04-02T11:58:37.230Z,0.65
2024-04-02T11:59:37.230Z,0.63
2024-04-02T12:00:37.246Z,0.61
2024-04-02T12:01:37.662Z,0.59
2024-04-02T12:02:37.281Z,0.55
2024-04-02T12:03:37.308Z,0.56
2024-04-02T12:04:37.348Z,0.53
2024-04-02T12:05:37.371Z,0.54
2024-04-02T12:06:37.409Z,0.55
2024-04-02T12:07:37.443Z,0.52
2024-04-02T12:08:37.468Z,0.52
2024-04-02T12:09:37.495Z,0.53
2024-04-02T12:10:37.541Z,0.49
2024-04-02T12:11:37.559Z,0.49
2024-04-02T12:12:37.588Z,0.54
2024-04-02T12:13:37.624Z,0.50
2024-04-02T12:14:37.643Z,0.56
2024-04-02T12:15:37.668Z,0.55
2024-04-02T12:16:37.702Z,0.54
2024-04-02T12:17:37.775Z,0.54
2024-04-02T12:18:37.769Z,0.55
2024-04-02T12:19:37.799Z,0.51
2024-04-02T12:20:37.835Z,0.54
2024-04-02T12:21:37.883Z,0.56
2024-04-02T12:22:37.897Z,0.51
2024-04-02T12:23:37.938Z,0.53
2024-04-02T12:24:37.985Z,0.50
2024-04-02T12:25:38.035Z,0.51
2024-04-02T12:26:38.065Z,0.52
2024-04-02T12:27:38.101Z,0.53
2024-04-02T12:28:38.142Z,0.49
2024-04-02T12:29:38.182Z,0.53
2024-04-02T12:30:38.251Z,0.51
2024-04-02T12:31:38.272Z,0.52
2024-04-02T12:32:38.311Z,0.52
2024-04-02T12:33:38.352Z,0.52
2024-04-02T12:34:38.395Z,0.51
2024-04-02T12:35:38.446Z,0.52
2024-04-02T12:36:38.488Z,0.53
2024-04-02T12:37:38.523Z,0.52
2024-04-02T12:38:38.567Z,0.51
2024-04-02T12:39:38.608Z,0.53
2024-04-02T12:40:38.644Z,0.53
2024-04-02T12:41:38.718Z,0.50
2024-04-02T12:42:38.761Z,0.52
2024-04-02T12:43:38.789Z,0.53
2024-04-02T12:44:38.827Z,0.51
2024-04-02T12:45:38.861Z,0.53
2024-04-02T12:46:38.916Z,0.53
2024-04-02T12:47:38.962Z,0.53
2024-04-02T12:48:52.089Z,0.52
2024-04-02T12:49:40.054Z,0.52
2024-04-02T12:50:39.021Z,0.51
2024-04-02T12:51:39.027Z,0.51
2024-04-02T12:52:39.024Z,0.51
2024-04-02T12:53:39.019Z,0.48
2024-04-02T12:54:39.035Z,0.50
2024-04-02T12:55:39.030Z,0.50
2024-04-02T12:56:39.179Z,0.51
2024-04-02T12:57:39.040Z,0.52
2024-04-02T12:58:39.041Z,0.50
2024-04-02T12:59:39.034Z,0.51
2024-04-02T13:00:39.068Z,0.51
2024-04-02T13:01:39.067Z,0.51
2024-04-02T13:02:39.114Z,0.51
2024-04-02T13:03:39.157Z,0.51
2024-04-02T13:04:39.227Z,0.52
2024-04-02T13:05:39.276Z,0.51
2024-04-02T13:06:41.574Z,0.51
2024-04-02T13:07:39.396Z,0.50
2024-04-02T13:08:39.438Z,0.51
2024-04-02T13:09:39.495Z,0.52
2024-04-02T13:10:39.551Z,0.52
2024-04-02T13:11:39.602Z,0.52
2024-04-02T13:12:39.651Z,0.50
2024-04-02T13:13:39.711Z,0.51
2024-04-02T13:14:39.762Z,0.51
2024-04-02T13:15:39.832Z,0.51
2024-04-02T13:16:39.967Z,0.50
2024-04-02T13:17:39.931Z,0.52
2024-04-02T13:18:39.997Z,0.51